sensor_id;sensor_type;location;lat;lon;timestamp;P1;durP1;ratioP1;P2;durP2;ratioP2
18100;SDS011;9177;49.156;8.142;2023-04-01T00:00:23;1.57;;;0.60;;
18100;SDS011;9177;49.156;8.142;2023-04-01T00:02:50;1.70;;;0.60;;
18100;SDS011;9177;49.156;8.142;2023-04-01T00:05:17;1.67;;;0.77;;
18100;SDS011;9177;49.156;8.142;2023-04-01T00:07:44;0.67;;;0.50;;
18100;SDS011;9177;49.156;8.142;2023-04-01T00:10:11;1.27;;;0.57;;
18100;SDS011;9177;49.156;8.142;2023-04-01T00:12:41;1.37;;;0.60;;
18100;SDS011;9177;49.156;8.142;2023-04-01T00:15:09;2.87;;;0.70;;
18100;SDS011;9177;49.156;8.142;2023-04-01T00:17:37;1.13;;;0.53;;
18100;SDS011;9177;49.156;8.142;2023-04-01T00:20:04;1.17;;;0.50;;
18100;SDS011;9177;49.156;8.142;2023-04-01T00:22:33;1.57;;;0.60;;
18100;SDS011;9177;49.156;8.142;2023-04-01T00:25:00;0.77;;;0.47;;
18100;SDS011;9177;49.156;8.142;2023-04-01T00:27:27;1.70;;;0.43;;
18100;SDS011;9177;49.156;8.142;2023-04-01T00:29:55;1.33;;;0.57;;
18100;SDS011;9177;49.156;8.142;2023-04-01T00:32:22;1.17;;;0.70;;
18100;SDS011;9177;49.156;8.142;2023-04-01T00:34:49;1.30;;;0.50;;
18100;SDS011;9177;49.156;8.142;2023-04-01T00:37:16;1.77;;;0.60;;
18100;SDS011;9177;49.156;8.142;2023-04-01T00:39:43;1.53;;;0.67;;
18100;SDS011;9177;49.156;8.142;2023-04-01T00:42:11;2.47;;;0.50;;
18100;SDS011;9177;49.156;8.142;2023-04-01T00:44:39;0.80;;;0.47;;
18100;SDS011;9177;49.156;8.142;2023-04-01T00:47:07;2.03;;;0.70;;
18100;SDS011;9177;49.156;8.142;2023-04-01T00:49:36;1.90;;;0.87;;
18100;SDS011;9177;49.156;8.142;2023-04-01T00:52:05;1.03;;;0.50;;
18100;SDS011;9177;49.156;8.142;2023-04-01T00:54:34;2.97;;;0.60;;
18100;SDS011;9177;49.156;8.142;2023-04-01T00:57:04;1.50;;;0.60;;
18100;SDS011;9177;49.156;8.142;2023-04-01T00:59:34;1.57;;;0.80;;
18100;SDS011;9177;49.156;8.142;2023-04-01T01:02:04;1.37;;;0.67;;
18100;SDS011;9177;49.156;8.142;2023-04-01T01:04:34;1.57;;;0.60;;
18100;SDS011;9177;49.156;8.142;2023-04-01T01:07:03;2.00;;;0.70;;
18100;SDS011;9177;49.156;8.142;2023-04-01T01:09:41;1.20;;;0.70;;
18100;SDS011;9177;49.156;8.142;2023-04-01T01:12:15;1.40;;;0.60;;
18100;SDS011;9177;49.156;8.142;2023-04-01T01:14:49;1.33;;;0.63;;
18100;SDS011;9177;49.156;8.142;2023-04-01T01:17:24;0.93;;;0.40;;
18100;SDS011;9177;49.156;8.142;2023-04-01T01:23:08;1.37;;;0.57;;
18100;SDS011;9177;49.156;8.142;2023-04-01T01:26:01;1.17;;;0.70;;
18100;SDS011;9177;49.156;8.142;2023-04-01T01:28:44;1.87;;;0.70;;
18100;SDS011;9177;49.156;8.142;2023-04-01T01:31:22;0.93;;;0.50;;
18100;SDS011;9177;49.156;8.142;2023-04-01T01:34:01;1.87;;;0.70;;
18100;SDS011;9177;49.156;8.142;2023-04-01T01:36:39;1.03;;;0.60;;
18100;SDS011;9177;49.156;8.142;2023-04-01T01:39:10;1.37;;;0.40;;
18100;SDS011;9177;49.156;8.142;2023-04-01T01:41:43;1.83;;;0.90;;
18100;SDS011;9177;49.156;8.142;2023-04-01T01:44:14;1.40;;;0.50;;
18100;SDS011;9177;49.156;8.142;2023-04-01T01:46:42;1.13;;;0.57;;
18100;SDS011;9177;49.156;8.142;2023-04-01T01:49:11;1.20;;;0.53;;
18100;SDS011;9177;49.156;8.142;2023-04-01T01:51:42;0.83;;;0.53;;
18100;SDS011;9177;49.156;8.142;2023-04-01T01:54:11;1.50;;;0.70;;
18100;SDS011;9177;49.156;8.142;2023-04-01T01:56:39;1.87;;;0.60;;
18100;SDS011;9177;49.156;8.142;2023-04-01T01:59:09;1.53;;;0.50;;
18100;SDS011;9177;49.156;8.142;2023-04-01T02:01:39;1.57;;;0.70;;
18100;SDS011;9177;49.156;8.142;2023-04-01T02:04:09;1.60;;;0.63;;
18100;SDS011;9177;49.156;8.142;2023-04-01T02:06:38;1.30;;;0.43;;
18100;SDS011;9177;49.156;8.142;2023-04-01T02:09:10;1.50;;;0.67;;
18100;SDS011;9177;49.156;8.142;2023-04-01T02:11:38;1.20;;;0.50;;
18100;SDS011;9177;49.156;8.142;2023-04-01T02:14:10;1.07;;;0.63;;
18100;SDS011;9177;49.156;8.142;2023-04-01T02:16:43;1.87;;;0.70;;
18100;SDS011;9177;49.156;8.142;2023-04-01T02:19:13;0.97;;;0.60;;
18100;SDS011;9177;49.156;8.142;2023-04-01T02:21:47;2.83;;;0.63;;
18100;SDS011;9177;49.156;8.142;2023-04-01T02:24:18;1.63;;;0.50;;
18100;SDS011;9177;49.156;8.142;2023-04-01T02:26:47;1.30;;;0.70;;
18100;SDS011;9177;49.156;8.142;2023-04-01T02:29:19;1.20;;;0.60;;
18100;SDS011;9177;49.156;8.142;2023-04-01T02:31:48;1.47;;;0.60;;
18100;SDS011;9177;49.156;8.142;2023-04-01T02:34:16;1.20;;;0.70;;
18100;SDS011;9177;49.156;8.142;2023-04-01T02:36:43;1.90;;;0.87;;
18100;SDS011;9177;49.156;8.142;2023-04-01T02:39:10;2.10;;;0.77;;
18100;SDS011;9177;49.156;8.142;2023-04-01T02:41:42;1.50;;;0.50;;
18100;SDS011;9177;49.156;8.142;2023-04-01T02:44:12;1.30;;;0.47;;
18100;SDS011;9177;49.156;8.142;2023-04-01T02:46:40;0.97;;;0.50;;
18100;SDS011;9177;49.156;8.142;2023-04-01T02:49:07;2.00;;;0.70;;
18100;SDS011;9177;49.156;8.142;2023-04-01T02:51:34;2.57;;;0.70;;
18100;SDS011;9177;49.156;8.142;2023-04-01T02:54:01;2.27;;;0.50;;
18100;SDS011;9177;49.156;8.142;2023-04-01T02:56:28;1.20;;;0.70;;
18100;SDS011;9177;49.156;8.142;2023-04-01T02:58:56;1.57;;;0.70;;
18100;SDS011;9177;49.156;8.142;2023-04-01T03:01:23;0.70;;;0.47;;
18100;SDS011;9177;49.156;8.142;2023-04-01T03:03:50;1.00;;;0.50;;
18100;SDS011;9177;49.156;8.142;2023-04-01T03:06:17;1.13;;;0.60;;
18100;SDS011;9177;49.156;8.142;2023-04-01T03:08:44;1.70;;;0.63;;
18100;SDS011;9177;49.156;8.142;2023-04-01T03:11:11;1.30;;;0.60;;
18100;SDS011;9177;49.156;8.142;2023-04-01T03:13:38;1.97;;;0.80;;
18100;SDS011;9177;49.156;8.142;2023-04-01T03:16:06;1.33;;;0.60;;
18100;SDS011;9177;49.156;8.142;2023-04-01T03:18:33;1.43;;;0.60;;
18100;SDS011;9177;49.156;8.142;2023-04-01T03:21:11;1.20;;;0.60;;
18100;SDS011;9177;49.156;8.142;2023-04-01T03:23:40;1.33;;;0.50;;
18100;SDS011;9177;49.156;8.142;2023-04-01T03:26:07;1.20;;;0.50;;
18100;SDS011;9177;49.156;8.142;2023-04-01T03:28:33;1.47;;;0.60;;
18100;SDS011;9177;49.156;8.142;2023-04-01T03:31:00;1.27;;;0.50;;
18100;SDS011;9177;49.156;8.142;2023-04-01T03:33:28;1.47;;;0.60;;
18100;SDS011;9177;49.156;8.142;2023-04-01T03:35:55;1.20;;;0.40;;
18100;SDS011;9177;49.156;8.142;2023-04-01T03:38:22;1.47;;;0.70;;
18100;SDS011;9177;49.156;8.142;2023-04-01T03:40:49;0.80;;;0.60;;
18100;SDS011;9177;49.156;8.142;2023-04-01T03:43:16;1.80;;;0.60;;
18100;SDS011;9177;49.156;8.142;2023-04-01T03:45:44;1.13;;;0.53;;
18100;SDS011;9177;49.156;8.142;2023-04-01T03:48:11;1.57;;;0.50;;
18100;SDS011;9177;49.156;8.142;2023-04-01T03:50:40;1.87;;;0.60;;
18100;SDS011;9177;49.156;8.142;2023-04-01T03:53:07;0.60;;;0.40;;
18100;SDS011;9177;49.156;8.142;2023-04-01T03:55:35;1.07;;;0.50;;
18100;SDS011;9177;49.156;8.142;2023-04-01T03:58:02;1.50;;;0.60;;
18100;SDS011;9177;49.156;8.142;2023-04-01T04:00:29;1.63;;;0.57;;
18100;SDS011;9177;49.156;8.142;2023-04-01T04:02:56;1.10;;;0.50;;
18100;SDS011;9177;49.156;8.142;2023-04-01T04:05:24;1.30;;;0.60;;
18100;SDS011;9177;49.156;8.142;2023-04-01T04:07:53;2.30;;;0.70;;
18100;SDS011;9177;49.156;8.142;2023-04-01T04:10:20;0.80;;;0.50;;
18100;SDS011;9177;49.156;8.142;2023-04-01T04:12:48;1.13;;;0.43;;
18100;SDS011;9177;49.156;8.142;2023-04-01T04:15:15;1.90;;;0.40;;
18100;SDS011;9177;49.156;8.142;2023-04-01T04:17:43;1.93;;;0.60;;
18100;SDS011;9177;49.156;8.142;2023-04-01T04:20:10;1.83;;;0.70;;
18100;SDS011;9177;49.156;8.142;2023-04-01T04:22:37;0.90;;;0.50;;
18100;SDS011;9177;49.156;8.142;2023-04-01T04:25:06;1.60;;;0.67;;
18100;SDS011;9177;49.156;8.142;2023-04-01T04:27:33;1.37;;;0.67;;
18100;SDS011;9177;49.156;8.142;2023-04-01T04:30:00;1.20;;;0.53;;
18100;SDS011;9177;49.156;8.142;2023-04-01T04:32:27;1.83;;;0.77;;
18100;SDS011;9177;49.156;8.142;2023-04-01T04:34:54;1.37;;;0.50;;
18100;SDS011;9177;49.156;8.142;2023-04-01T04:37:21;2.43;;;0.87;;
18100;SDS011;9177;49.156;8.142;2023-04-01T04:39:48;2.23;;;0.70;;
18100;SDS011;9177;49.156;8.142;2023-04-01T04:42:16;1.33;;;0.63;;
18100;SDS011;9177;49.156;8.142;2023-04-01T04:44:42;1.07;;;0.60;;
18100;SDS011;9177;49.156;8.142;2023-04-01T04:47:09;1.57;;;0.50;;
18100;SDS011;9177;49.156;8.142;2023-04-01T04:49:36;2.00;;;0.80;;
18100;SDS011;9177;49.156;8.142;2023-04-01T04:52:03;1.73;;;0.80;;
18100;SDS011;9177;49.156;8.142;2023-04-01T04:54:30;3.17;;;0.87;;
18100;SDS011;9177;49.156;8.142;2023-04-01T04:56:56;2.30;;;0.80;;
18100;SDS011;9177;49.156;8.142;2023-04-01T04:59:25;1.37;;;0.60;;
18100;SDS011;9177;49.156;8.142;2023-04-01T05:01:51;2.10;;;0.73;;
18100;SDS011;9177;49.156;8.142;2023-04-01T05:04:18;2.23;;;0.63;;
18100;SDS011;9177;49.156;8.142;2023-04-01T05:06:45;1.70;;;0.70;;
18100;SDS011;9177;49.156;8.142;2023-04-01T05:09:12;1.47;;;0.60;;
18100;SDS011;9177;49.156;8.142;2023-04-01T05:11:39;1.27;;;0.70;;
18100;SDS011;9177;49.156;8.142;2023-04-01T05:14:06;1.53;;;0.60;;
18100;SDS011;9177;49.156;8.142;2023-04-01T05:16:39;1.97;;;0.80;;
18100;SDS011;9177;49.156;8.142;2023-04-01T05:19:06;1.30;;;0.70;;
18100;SDS011;9177;49.156;8.142;2023-04-01T05:21:33;1.13;;;0.53;;
18100;SDS011;9177;49.156;8.142;2023-04-01T05:24:02;2.97;;;0.80;;
18100;SDS011;9177;49.156;8.142;2023-04-01T05:26:29;1.40;;;0.60;;
18100;SDS011;9177;49.156;8.142;2023-04-01T05:28:55;1.27;;;0.60;;
18100;SDS011;9177;49.156;8.142;2023-04-01T05:31:22;2.10;;;0.80;;
18100;SDS011;9177;49.156;8.142;2023-04-01T05:33:51;1.80;;;0.70;;
18100;SDS011;9177;49.156;8.142;2023-04-01T05:36:19;1.93;;;0.53;;
18100;SDS011;9177;49.156;8.142;2023-04-01T05:38:45;2.67;;;1.00;;
18100;SDS011;9177;49.156;8.142;2023-04-01T05:41:13;1.40;;;0.70;;
18100;SDS011;9177;49.156;8.142;2023-04-01T05:43:41;1.83;;;0.80;;
18100;SDS011;9177;49.156;8.142;2023-04-01T05:46:08;2.07;;;0.80;;
18100;SDS011;9177;49.156;8.142;2023-04-01T05:48:35;1.37;;;0.57;;
18100;SDS011;9177;49.156;8.142;2023-04-01T05:51:04;1.20;;;0.60;;
18100;SDS011;9177;49.156;8.142;2023-04-01T05:53:30;2.83;;;0.80;;
18100;SDS011;9177;49.156;8.142;2023-04-01T05:56:01;1.60;;;0.77;;
18100;SDS011;9177;49.156;8.142;2023-04-01T05:58:28;2.27;;;0.60;;
18100;SDS011;9177;49.156;8.142;2023-04-01T06:00:59;2.77;;;0.80;;
18100;SDS011;9177;49.156;8.142;2023-04-01T06:03:27;1.33;;;0.73;;
18100;SDS011;9177;49.156;8.142;2023-04-01T06:05:54;1.87;;;0.70;;
18100;SDS011;9177;49.156;8.142;2023-04-01T06:08:22;1.27;;;0.73;;
18100;SDS011;9177;49.156;8.142;2023-04-01T06:10:55;2.00;;;0.73;;
18100;SDS011;9177;49.156;8.142;2023-04-01T06:13:35;0.77;;;0.50;;
18100;SDS011;9177;49.156;8.142;2023-04-01T06:16:14;1.93;;;0.70;;
18100;SDS011;9177;49.156;8.142;2023-04-01T06:18:52;1.07;;;0.60;;
18100;SDS011;9177;49.156;8.142;2023-04-01T06:21:33;1.57;;;0.60;;
18100;SDS011;9177;49.156;8.142;2023-04-01T06:24:19;1.10;;;0.60;;
18100;SDS011;9177;49.156;8.142;2023-04-01T06:26:58;1.93;;;0.83;;
18100;SDS011;9177;49.156;8.142;2023-04-01T06:29:43;0.70;;;0.40;;
18100;SDS011;9177;49.156;8.142;2023-04-01T06:32:25;1.93;;;0.60;;
18100;SDS011;9177;49.156;8.142;2023-04-01T06:35:04;1.13;;;0.70;;
18100;SDS011;9177;49.156;8.142;2023-04-01T06:37:52;1.07;;;0.50;;
18100;SDS011;9177;49.156;8.142;2023-04-01T06:40:50;1.57;;;0.67;;
18100;SDS011;9177;49.156;8.142;2023-04-01T06:43:37;1.60;;;0.60;;
18100;SDS011;9177;49.156;8.142;2023-04-01T06:46:13;1.17;;;0.47;;
18100;SDS011;9177;49.156;8.142;2023-04-01T06:48:50;1.43;;;0.50;;
18100;SDS011;9177;49.156;8.142;2023-04-01T06:51:30;0.57;;;0.37;;
18100;SDS011;9177;49.156;8.142;2023-04-01T06:54:07;1.17;;;0.60;;
18100;SDS011;9177;49.156;8.142;2023-04-01T06:56:40;0.90;;;0.47;;
18100;SDS011;9177;49.156;8.142;2023-04-01T06:59:15;0.80;;;0.50;;
18100;SDS011;9177;49.156;8.142;2023-04-01T07:01:45;0.93;;;0.43;;
18100;SDS011;9177;49.156;8.142;2023-04-01T07:04:16;0.83;;;0.50;;
18100;SDS011;9177;49.156;8.142;2023-04-01T07:06:47;0.70;;;0.40;;
18100;SDS011;9177;49.156;8.142;2023-04-01T07:09:18;0.70;;;0.47;;
18100;SDS011;9177;49.156;8.142;2023-04-01T07:11:48;1.23;;;0.60;;
18100;SDS011;9177;49.156;8.142;2023-04-01T07:14:17;1.17;;;0.50;;
18100;SDS011;9177;49.156;8.142;2023-04-01T07:16:48;1.30;;;0.50;;
18100;SDS011;9177;49.156;8.142;2023-04-01T07:19:24;1.27;;;0.50;;
18100;SDS011;9177;49.156;8.142;2023-04-01T07:21:56;1.07;;;0.57;;
18100;SDS011;9177;49.156;8.142;2023-04-01T07:24:27;1.53;;;0.60;;
18100;SDS011;9177;49.156;8.142;2023-04-01T07:26:59;1.17;;;0.40;;
18100;SDS011;9177;49.156;8.142;2023-04-01T07:29:26;1.20;;;0.60;;
18100;SDS011;9177;49.156;8.142;2023-04-01T07:32:01;0.70;;;0.50;;
18100;SDS011;9177;49.156;8.142;2023-04-01T07:34:36;1.30;;;0.60;;
18100;SDS011;9177;49.156;8.142;2023-04-01T07:37:11;0.80;;;0.40;;
18100;SDS011;9177;49.156;8.142;2023-04-01T07:39:44;0.73;;;0.40;;
18100;SDS011;9177;49.156;8.142;2023-04-01T07:42:22;1.20;;;0.47;;
18100;SDS011;9177;49.156;8.142;2023-04-01T07:44:58;1.23;;;0.50;;
18100;SDS011;9177;49.156;8.142;2023-04-01T07:47:37;0.70;;;0.40;;
18100;SDS011;9177;49.156;8.142;2023-04-01T07:50:13;1.10;;;0.33;;
18100;SDS011;9177;49.156;8.142;2023-04-01T07:52:49;0.80;;;0.47;;
18100;SDS011;9177;49.156;8.142;2023-04-01T07:55:26;1.30;;;0.53;;
18100;SDS011;9177;49.156;8.142;2023-04-01T07:58:00;1.07;;;0.40;;
18100;SDS011;9177;49.156;8.142;2023-04-01T08:00:35;0.57;;;0.40;;
18100;SDS011;9177;49.156;8.142;2023-04-01T08:03:20;1.30;;;0.70;;
18100;SDS011;9177;49.156;8.142;2023-04-01T08:05:59;0.73;;;0.30;;
18100;SDS011;9177;49.156;8.142;2023-04-01T08:08:33;0.50;;;0.40;;
18100;SDS011;9177;49.156;8.142;2023-04-01T08:11:11;1.33;;;0.57;;
18100;SDS011;9177;49.156;8.142;2023-04-01T08:13:50;0.57;;;0.30;;
18100;SDS011;9177;49.156;8.142;2023-04-01T08:16:22;1.43;;;0.40;;
18100;SDS011;9177;49.156;8.142;2023-04-01T08:18:58;1.10;;;0.60;;
18100;SDS011;9177;49.156;8.142;2023-04-01T08:21:38;0.30;;;0.30;;
18100;SDS011;9177;49.156;8.142;2023-04-01T08:24:11;0.60;;;0.43;;
18100;SDS011;9177;49.156;8.142;2023-04-01T08:26:44;0.50;;;0.40;;
18100;SDS011;9177;49.156;8.142;2023-04-01T08:29:17;0.60;;;0.43;;
18100;SDS011;9177;49.156;8.142;2023-04-01T08:31:48;1.00;;;0.60;;
18100;SDS011;9177;49.156;8.142;2023-04-01T08:34:23;0.50;;;0.33;;
18100;SDS011;9177;49.156;8.142;2023-04-01T08:36:52;0.67;;;0.40;;
18100;SDS011;9177;49.156;8.142;2023-04-01T08:39:24;1.50;;;0.30;;
18100;SDS011;9177;49.156;8.142;2023-04-01T08:42:16;0.87;;;0.40;;
18100;SDS011;9177;49.156;8.142;2023-04-01T08:47:46;0.70;;;0.30;;
18100;SDS011;9177;49.156;8.142;2023-04-01T08:53:46;0.70;;;0.27;;
18100;SDS011;9177;49.156;8.142;2023-04-01T08:56:30;0.40;;;0.20;;
18100;SDS011;9177;49.156;8.142;2023-04-01T08:59:13;0.33;;;0.30;;
18100;SDS011;9177;49.156;8.142;2023-04-01T09:02:00;0.87;;;0.30;;
18100;SDS011;9177;49.156;8.142;2023-04-01T09:04:49;0.73;;;0.40;;
18100;SDS011;9177;49.156;8.142;2023-04-01T09:07:34;0.80;;;0.40;;
18100;SDS011;9177;49.156;8.142;2023-04-01T09:10:22;0.33;;;0.30;;
18100;SDS011;9177;49.156;8.142;2023-04-01T09:13:20;0.70;;;0.40;;
18100;SDS011;9177;49.156;8.142;2023-04-01T09:16:10;0.83;;;0.40;;
18100;SDS011;9177;49.156;8.142;2023-04-01T09:18:50;1.37;;;0.30;;
18100;SDS011;9177;49.156;8.142;2023-04-01T09:21:34;0.63;;;0.30;;
18100;SDS011;9177;49.156;8.142;2023-04-01T09:24:33;0.60;;;0.30;;
18100;SDS011;9177;49.156;8.142;2023-04-01T09:27:10;0.73;;;0.30;;
18100;SDS011;9177;49.156;8.142;2023-04-01T09:32:54;0.27;;;0.20;;
18100;SDS011;9177;49.156;8.142;2023-04-01T09:35:45;1.37;;;0.30;;
18100;SDS011;9177;49.156;8.142;2023-04-01T09:38:20;0.53;;;0.30;;
18100;SDS011;9177;49.156;8.142;2023-04-01T09:40:54;0.80;;;0.37;;
18100;SDS011;9177;49.156;8.142;2023-04-01T09:43:25;1.23;;;0.40;;
18100;SDS011;9177;49.156;8.142;2023-04-01T09:51:39;2.03;;;0.40;;
18100;SDS011;9177;49.156;8.142;2023-04-01T09:54:20;1.00;;;0.40;;
18100;SDS011;9177;49.156;8.142;2023-04-01T10:00:07;1.03;;;0.40;;
18100;SDS011;9177;49.156;8.142;2023-04-01T10:14:56;4.97;;;0.50;;
18100;SDS011;9177;49.156;8.142;2023-04-01T10:17:49;3.70;;;0.53;;
18100;SDS011;9177;49.156;8.142;2023-04-01T10:20:55;3.87;;;0.60;;
18100;SDS011;9177;49.156;8.142;2023-04-01T10:23:43;4.20;;;0.50;;
18100;SDS011;9177;49.156;8.142;2023-04-01T10:26:42;4.33;;;0.77;;
18100;SDS011;9177;49.156;8.142;2023-04-01T10:32:40;4.43;;;0.60;;
18100;SDS011;9177;49.156;8.142;2023-04-01T10:38:33;6.53;;;0.70;;
18100;SDS011;9177;49.156;8.142;2023-04-01T10:41:28;3.27;;;0.40;;
18100;SDS011;9177;49.156;8.142;2023-04-01T10:44:22;3.07;;;0.50;;
18100;SDS011;9177;49.156;8.142;2023-04-01T10:50:47;4.13;;;0.57;;
18100;SDS011;9177;49.156;8.142;2023-04-01T10:53:35;6.80;;;0.73;;
18100;SDS011;9177;49.156;8.142;2023-04-01T10:56:15;4.43;;;0.50;;
18100;SDS011;9177;49.156;8.142;2023-04-01T10:59:14;3.67;;;0.43;;
18100;SDS011;9177;49.156;8.142;2023-04-01T11:02:09;4.03;;;0.53;;
18100;SDS011;9177;49.156;8.142;2023-04-01T11:11:29;5.33;;;0.70;;
18100;SDS011;9177;49.156;8.142;2023-04-01T11:17:54;4.20;;;0.60;;
18100;SDS011;9177;49.156;8.142;2023-04-01T11:20:54;3.87;;;0.70;;
18100;SDS011;9177;49.156;8.142;2023-04-01T11:23:50;4.13;;;0.70;;
18100;SDS011;9177;49.156;8.142;2023-04-01T11:29:36;2.23;;;0.40;;
18100;SDS011;9177;49.156;8.142;2023-04-01T11:32:20;3.03;;;0.40;;
18100;SDS011;9177;49.156;8.142;2023-04-01T11:35:06;4.30;;;0.67;;
18100;SDS011;9177;49.156;8.142;2023-04-01T11:38:02;5.73;;;0.57;;
18100;SDS011;9177;49.156;8.142;2023-04-01T11:40:37;6.27;;;0.67;;
18100;SDS011;9177;49.156;8.142;2023-04-01T11:43:11;7.13;;;1.77;;
18100;SDS011;9177;49.156;8.142;2023-04-01T11:45:46;11.37;;;1.80;;
18100;SDS011;9177;49.156;8.142;2023-04-01T11:48:24;12.80;;;2.03;;
18100;SDS011;9177;49.156;8.142;2023-04-01T11:51:15;8.23;;;1.00;;
18100;SDS011;9177;49.156;8.142;2023-04-01T11:53:58;5.87;;;1.10;;
18100;SDS011;9177;49.156;8.142;2023-04-01T11:56:39;5.90;;;1.37;;
18100;SDS011;9177;49.156;8.142;2023-04-01T12:02:20;4.63;;;1.00;;
18100;SDS011;9177;49.156;8.142;2023-04-01T12:04:58;6.43;;;1.50;;
18100;SDS011;9177;49.156;8.142;2023-04-01T12:07:55;6.00;;;1.10;;
18100;SDS011;9177;49.156;8.142;2023-04-01T12:10:33;6.00;;;0.97;;
18100;SDS011;9177;49.156;8.142;2023-04-01T12:13:09;4.37;;;1.17;;
18100;SDS011;9177;49.156;8.142;2023-04-01T12:15:51;7.00;;;1.20;;
18100;SDS011;9177;49.156;8.142;2023-04-01T12:18:35;6.20;;;0.90;;
18100;SDS011;9177;49.156;8.142;2023-04-01T12:21:09;5.23;;;0.87;;
18100;SDS011;9177;49.156;8.142;2023-04-01T12:23:56;2.80;;;0.80;;
18100;SDS011;9177;49.156;8.142;2023-04-01T12:26:53;4.33;;;0.70;;
18100;SDS011;9177;49.156;8.142;2023-04-01T12:29:49;3.93;;;0.80;;
18100;SDS011;9177;49.156;8.142;2023-04-01T12:32:34;5.63;;;0.60;;
18100;SDS011;9177;49.156;8.142;2023-04-01T12:35:13;2.93;;;0.60;;
18100;SDS011;9177;49.156;8.142;2023-04-01T12:37:50;2.23;;;0.60;;
18100;SDS011;9177;49.156;8.142;2023-04-01T12:40:38;1.60;;;0.30;;
18100;SDS011;9177;49.156;8.142;2023-04-01T12:43:28;2.83;;;0.30;;
18100;SDS011;9177;49.156;8.142;2023-04-01T12:46:19;0.70;;;0.37;;
18100;SDS011;9177;49.156;8.142;2023-04-01T12:49:08;3.33;;;0.50;;
18100;SDS011;9177;49.156;8.142;2023-04-01T12:52:03;7.00;;;0.67;;
18100;SDS011;9177;49.156;8.142;2023-04-01T12:57:54;4.83;;;0.63;;
18100;SDS011;9177;49.156;8.142;2023-04-01T13:00:44;3.47;;;0.57;;
18100;SDS011;9177;49.156;8.142;2023-04-01T13:03:31;5.50;;;0.63;;
18100;SDS011;9177;49.156;8.142;2023-04-01T13:06:20;5.57;;;0.60;;
18100;SDS011;9177;49.156;8.142;2023-04-01T13:08:58;5.40;;;1.07;;
18100;SDS011;9177;49.156;8.142;2023-04-01T13:11:46;4.40;;;0.60;;
18100;SDS011;9177;49.156;8.142;2023-04-01T13:14:28;4.90;;;0.67;;
18100;SDS011;9177;49.156;8.142;2023-04-01T13:17:22;6.97;;;0.60;;
18100;SDS011;9177;49.156;8.142;2023-04-01T13:19:57;3.43;;;0.70;;
18100;SDS011;9177;49.156;8.142;2023-04-01T13:22:32;3.10;;;0.60;;
18100;SDS011;9177;49.156;8.142;2023-04-01T13:25:14;2.30;;;0.37;;
18100;SDS011;9177;49.156;8.142;2023-04-01T13:27:54;7.20;;;0.70;;
18100;SDS011;9177;49.156;8.142;2023-04-01T13:30:26;3.83;;;0.60;;
18100;SDS011;9177;49.156;8.142;2023-04-01T13:32:58;7.90;;;1.00;;
18100;SDS011;9177;49.156;8.142;2023-04-01T13:35:34;3.50;;;0.60;;
18100;SDS011;9177;49.156;8.142;2023-04-01T13:38:13;6.47;;;0.77;;
18100;SDS011;9177;49.156;8.142;2023-04-01T13:41:05;9.00;;;1.03;;
18100;SDS011;9177;49.156;8.142;2023-04-01T13:43:45;11.23;;;0.97;;
18100;SDS011;9177;49.156;8.142;2023-04-01T13:52:27;2.57;;;0.80;;
18100;SDS011;9177;49.156;8.142;2023-04-01T13:58:29;8.20;;;1.10;;
18100;SDS011;9177;49.156;8.142;2023-04-01T14:01:12;2.27;;;0.50;;
18100;SDS011;9177;49.156;8.142;2023-04-01T14:06:57;5.87;;;0.80;;
18100;SDS011;9177;49.156;8.142;2023-04-01T14:09:44;7.27;;;0.97;;
18100;SDS011;9177;49.156;8.142;2023-04-01T14:12:26;3.57;;;0.57;;
18100;SDS011;9177;49.156;8.142;2023-04-01T14:15:01;6.90;;;0.87;;
18100;SDS011;9177;49.156;8.142;2023-04-01T14:17:50;5.97;;;0.80;;
18100;SDS011;9177;49.156;8.142;2023-04-01T14:20:35;7.30;;;1.00;;
18100;SDS011;9177;49.156;8.142;2023-04-01T14:23:29;3.30;;;0.70;;
18100;SDS011;9177;49.156;8.142;2023-04-01T14:26:11;7.03;;;0.80;;
18100;SDS011;9177;49.156;8.142;2023-04-01T14:28:54;4.43;;;0.97;;
18100;SDS011;9177;49.156;8.142;2023-04-01T14:31:34;6.53;;;0.97;;
18100;SDS011;9177;49.156;8.142;2023-04-01T14:34:25;6.13;;;0.70;;
18100;SDS011;9177;49.156;8.142;2023-04-01T14:37:22;8.07;;;1.00;;
18100;SDS011;9177;49.156;8.142;2023-04-01T14:40:11;10.63;;;1.50;;
18100;SDS011;9177;49.156;8.142;2023-04-01T14:42:53;5.43;;;0.87;;
18100;SDS011;9177;49.156;8.142;2023-04-01T14:45:41;8.27;;;1.13;;
18100;SDS011;9177;49.156;8.142;2023-04-01T14:48:25;4.77;;;1.00;;
18100;SDS011;9177;49.156;8.142;2023-04-01T14:51:02;3.30;;;1.10;;
18100;SDS011;9177;49.156;8.142;2023-04-01T14:53:36;8.27;;;1.30;;
18100;SDS011;9177;49.156;8.142;2023-04-01T14:56:10;5.23;;;1.27;;
18100;SDS011;9177;49.156;8.142;2023-04-01T14:58:44;5.83;;;0.97;;
18100;SDS011;9177;49.156;8.142;2023-04-01T15:01:26;6.47;;;0.93;;
18100;SDS011;9177;49.156;8.142;2023-04-01T15:04:10;7.00;;;1.30;;
18100;SDS011;9177;49.156;8.142;2023-04-01T15:07:02;11.70;;;1.30;;
18100;SDS011;9177;49.156;8.142;2023-04-01T15:09:54;11.80;;;1.40;;
18100;SDS011;9177;49.156;8.142;2023-04-01T15:12:29;9.23;;;2.67;;
18100;SDS011;9177;49.156;8.142;2023-04-01T15:17:56;8.23;;;1.63;;
18100;SDS011;9177;49.156;8.142;2023-04-01T15:20:36;3.33;;;1.17;;
18100;SDS011;9177;49.156;8.142;2023-04-01T15:23:18;9.40;;;1.53;;
18100;SDS011;9177;49.156;8.142;2023-04-01T15:26:17;10.50;;;1.90;;
18100;SDS011;9177;49.156;8.142;2023-04-01T15:29:08;9.43;;;1.57;;
18100;SDS011;9177;49.156;8.142;2023-04-01T15:31:47;6.97;;;1.37;;
18100;SDS011;9177;49.156;8.142;2023-04-01T15:34:26;5.97;;;1.43;;
18100;SDS011;9177;49.156;8.142;2023-04-01T15:37:02;6.30;;;1.60;;
18100;SDS011;9177;49.156;8.142;2023-04-01T15:39:43;10.07;;;1.50;;
18100;SDS011;9177;49.156;8.142;2023-04-01T15:45:27;8.00;;;1.87;;
18100;SDS011;9177;49.156;8.142;2023-04-01T15:48:06;9.10;;;1.67;;
18100;SDS011;9177;49.156;8.142;2023-04-01T15:50:51;8.20;;;1.60;;
18100;SDS011;9177;49.156;8.142;2023-04-01T15:53:27;4.90;;;1.63;;
18100;SDS011;9177;49.156;8.142;2023-04-01T15:56:16;8.87;;;1.50;;
18100;SDS011;9177;49.156;8.142;2023-04-01T15:58:55;8.10;;;1.37;;
18100;SDS011;9177;49.156;8.142;2023-04-01T16:01:35;7.20;;;2.50;;
18100;SDS011;9177;49.156;8.142;2023-04-01T16:04:27;7.13;;;1.73;;
18100;SDS011;9177;49.156;8.142;2023-04-01T16:07:04;6.53;;;1.70;;
18100;SDS011;9177;49.156;8.142;2023-04-01T16:09:56;8.93;;;2.30;;
18100;SDS011;9177;49.156;8.142;2023-04-01T16:12:42;4.13;;;1.70;;
18100;SDS011;9177;49.156;8.142;2023-04-01T16:15:24;11.67;;;2.57;;
18100;SDS011;9177;49.156;8.142;2023-04-01T16:17:59;16.07;;;2.80;;
18100;SDS011;9177;49.156;8.142;2023-04-01T16:20:42;22.20;;;2.50;;
18100;SDS011;9177;49.156;8.142;2023-04-01T16:23:13;10.77;;;2.13;;
18100;SDS011;9177;49.156;8.142;2023-04-01T16:25:49;9.57;;;2.23;;
18100;SDS011;9177;49.156;8.142;2023-04-01T16:28:25;6.77;;;2.13;;
18100;SDS011;9177;49.156;8.142;2023-04-01T16:30:59;11.10;;;2.13;;
18100;SDS011;9177;49.156;8.142;2023-04-01T16:33:32;9.45;;;1.73;;
18100;SDS011;9177;49.156;8.142;2023-04-01T16:36:09;7.60;;;2.10;;
18100;SDS011;9177;49.156;8.142;2023-04-01T16:38:43;9.90;;;2.23;;
18100;SDS011;9177;49.156;8.142;2023-04-01T16:41:17;5.40;;;2.42;;
18100;SDS011;9177;49.156;8.142;2023-04-01T16:43:47;8.53;;;2.20;;
18100;SDS011;9177;49.156;8.142;2023-04-01T16:46:32;8.43;;;1.80;;
18100;SDS011;9177;49.156;8.142;2023-04-01T16:49:04;7.60;;;1.70;;
18100;SDS011;9177;49.156;8.142;2023-04-01T16:51:52;7.43;;;1.90;;
18100;SDS011;9177;49.156;8.142;2023-04-01T16:54:26;5.60;;;1.63;;
18100;SDS011;9177;49.156;8.142;2023-04-01T16:56:56;5.33;;;1.57;;
18100;SDS011;9177;49.156;8.142;2023-04-01T16:59:33;8.53;;;1.50;;
18100;SDS011;9177;49.156;8.142;2023-04-01T17:02:04;5.87;;;1.50;;
18100;SDS011;9177;49.156;8.142;2023-04-01T17:04:40;7.30;;;1.77;;
18100;SDS011;9177;49.156;8.142;2023-04-01T17:07:14;9.53;;;1.50;;
18100;SDS011;9177;49.156;8.142;2023-04-01T17:10:00;6.87;;;1.37;;
18100;SDS011;9177;49.156;8.142;2023-04-01T17:12:42;3.63;;;1.30;;
18100;SDS011;9177;49.156;8.142;2023-04-01T17:15:19;5.20;;;2.37;;